Time;durP1;ratioP1;P1;durP2;ratioP2;P2;SDS_P1;SDS_P2;PMS_P1;PMS_P2;Temp;Humidity;BMP_temperature;BMP_pressure;BME280_temperature;BME280_humidity;BME280_pressure;Samples;Min_cycle;Max_cycle;Signal;HPM_P1;HPM_P2
2022/04/09 00:01:22;;;;;;;10.35;3.08;;;4.30;99.90;;;;;;4875922;29;20097;-87
2022/04/09 00:03:48;;;;;;;13.88;2.72;;;4.30;99.90;;;;;;4883886;29;20041;-90
2022/04/09 00:06:13;;;;;;;13.13;2.60;;;4.30;99.90;;;;;;4883989;29;20063;-90
2022/04/09 00:08:39;;;;;;;10.77;2.08;;;4.30;99.90;;;;;;4885447;29;20049;-88
2022/04/09 00:11:04;;;;;;;7.85;2.17;;;4.40;99.90;;;;;;4875891;29;20048;-90
2022/04/09 00:13:30;;;;;;;11.43;2.28;;;4.40;99.90;;;;;;4866921;29;20513;-89
2022/04/09 00:15:55;;;;;;;8.63;2.45;;;4.50;99.90;;;;;;4878120;29;20048;-87
2022/04/09 00:18:21;;;;;;;8.55;1.70;;;4.50;99.90;;;;;;4862209;29;20060;-88
2022/04/09 00:20:46;;;;;;;8.90;1.73;;;4.60;99.90;;;;;;4874144;29;20407;-89
2022/04/09 00:23:13;;;;;;;10.13;2.58;;;4.50;99.90;;;;;;4905124;29;20076;-88
2022/04/09 00:25:38;;;;;;;6.05;1.60;;;4.40;99.90;;;;;;4876444;29;20444;-89
2022/04/09 00:28:04;;;;;;;8.52;1.48;;;4.40;99.90;;;;;;4889076;29;20091;-88
2022/04/09 00:30:29;;;;;;;6.03;1.50;;;4.30;99.90;;;;;;4881321;29;20915;-88
2022/04/09 00:32:55;;;;;;;6.38;1.90;;;4.20;99.90;;;;;;4883572;29;20084;-87
2022/04/09 00:35:20;;;;;;;9.98;2.42;;;4.20;99.90;;;;;;4862275;29;20048;-89
2022/04/09 00:37:47;;;;;;;11.45;2.00;;;4.20;99.90;;;;;;4891053;29;20045;-88
2022/04/09 00:40:18;;;;;;;10.57;1.92;;;4.20;99.90;;;;;;4869101;29;20057;-88
2022/04/09 00:42:43;;;;;;;10.83;2.47;;;4.20;99.90;;;;;;4892078;29;20083;-87
2022/04/09 00:45:10;;;;;;;11.18;2.35;;;4.20;99.90;;;;;;4883466;29;20324;-87
2022/04/09 00:47:36;;;;;;;8.27;1.83;;;4.20;99.90;;;;;;4906844;29;20048;-87
2022/04/09 00:50:04;;;;;;;8.82;2.05;;;4.20;99.90;;;;;;4880951;29;20048;-90
2022/04/09 00:52:33;;;;;;;8.80;1.92;;;4.20;99.90;;;;;;4888609;29;20040;-90
2022/04/09 00:55:02;;;;;;;8.23;1.80;;;4.30;99.90;;;;;;4861131;29;20080;-89
2022/04/09 00:57:29;;;;;;;11.27;2.33;;;4.30;99.90;;;;;;4909930;29;20117;-91
2022/04/09 00:59:57;;;;;;;7.80;1.80;;;4.40;99.90;;;;;;4883554;29;20061;-88
2022/04/09 01:02:23;;;;;;;11.07;2.35;;;4.40;99.90;;;;;;4891657;29;20055;-88
2022/04/09 01:04:49;;;;;;;8.98;2.17;;;4.40;99.90;;;;;;4901971;29;20048;-87
2022/04/09 01:07:14;;;;;;;10.45;2.15;;;4.50;99.90;;;;;;4891501;29;20558;-87
2022/04/09 01:09:41;;;;;;;9.45;2.13;;;4.50;99.90;;;;;;4917493;29;20432;-90
2022/04/09 01:12:07;;;;;;;9.63;1.88;;;4.50;99.90;;;;;;4920622;29;20048;-89
2022/04/09 01:14:34;;;;;;;5.28;2.03;;;4.50;99.90;;;;;;4904624;29;20054;-90
2022/04/09 01:17:01;;;;;;;9.45;1.60;;;4.50;99.90;;;;;;4905253;29;20044;-88
2022/04/09 01:19:26;;;;;;;12.63;2.50;;;4.50;99.90;;;;;;4902635;29;20052;-90
2022/04/09 01:21:59;;;;;;;8.95;2.08;;;4.50;99.90;;;;;;4918687;29;20036;-91
2022/04/09 01:24:25;;;;;;;7.38;1.85;;;4.50;99.90;;;;;;4905048;29;20044;-90
2022/04/09 01:26:51;;;;;;;9.73;2.95;;;4.50;99.90;;;;;;4891383;29;20051;-92
2022/04/09 01:29:16;;;;;;;8.90;2.00;;;4.40;99.90;;;;;;4896103;29;20123;-89
2022/04/09 01:31:42;;;;;;;9.63;1.83;;;4.40;99.90;;;;;;4887331;29;20043;-90
2022/04/09 01:34:08;;;;;;;8.32;1.90;;;4.40;99.90;;;;;;4898836;29;20048;-90
2022/04/09 01:36:34;;;;;;;11.32;2.30;;;4.40;99.90;;;;;;4889311;29;20297;-91
2022/04/09 01:38:59;;;;;;;11.27;2.50;;;4.40;99.90;;;;;;4907657;29;20087;-90
2022/04/09 01:41:25;;;;;;;8.45;2.47;;;4.50;99.90;;;;;;4893558;29;20093;-91
2022/04/09 01:43:50;;;;;;;11.70;2.75;;;4.40;99.90;;;;;;4889612;29;20094;-92
2022/04/09 01:46:16;;;;;;;8.55;2.53;;;4.50;99.90;;;;;;4865253;29;20052;-87
2022/04/09 01:48:43;;;;;;;10.15;2.05;;;4.50;99.90;;;;;;4882883;29;20048;-89
2022/04/09 01:51:08;;;;;;;10.40;2.22;;;4.50;99.90;;;;;;4886814;29;20067;-89
2022/04/09 01:53:34;;;;;;;8.32;1.85;;;4.50;99.90;;;;;;4889768;29;20514;-88
2022/04/09 01:56:00;;;;;;;9.98;2.67;;;4.50;99.90;;;;;;4865782;29;20484;-88
2022/04/09 01:58:25;;;;;;;9.77;2.17;;;4.50;99.90;;;;;;4899910;29;20144;-88
2022/04/09 02:00:57;;;;;;;10.20;2.55;;;4.40;99.90;;;;;;4879396;29;20148;-89
2022/04/09 02:03:23;;;;;;;10.50;2.45;;;4.40;99.90;;;;;;4872812;29;20041;-87
2022/04/09 02:05:48;;;;;;;10.63;2.50;;;4.30;99.90;;;;;;4887599;29;20049;-88
2022/04/09 02:08:14;;;;;;;10.60;2.22;;;4.30;99.90;;;;;;4881875;29;20057;-88
2022/04/09 02:10:39;;;;;;;12.40;2.08;;;4.30;99.90;;;;;;4882742;29;20040;-87
2022/04/09 02:13:11;;;;;;;12.30;2.30;;;4.20;99.90;;;;;;4867067;29;20056;-88
2022/04/09 02:15:37;;;;;;;8.75;2.28;;;4.20;99.90;;;;;;4864534;29;20048;-87
2022/04/09 02:18:02;;;;;;;14.90;2.45;;;4.20;99.90;;;;;;4888464;29;20068;-88
2022/04/09 02:20:28;;;;;;;11.35;2.13;;;4.10;99.90;;;;;;4885793;29;20052;-88
2022/04/09 02:22:55;;;;;;;8.43;2.05;;;4.10;99.90;;;;;;4894822;29;20063;-89
2022/04/09 02:25:21;;;;;;;12.18;2.63;;;4.00;99.90;;;;;;4885071;29;20109;-87
2022/04/09 02:27:47;;;;;;;11.25;2.20;;;4.00;99.90;;;;;;4884105;29;20060;-88
2022/04/09 02:30:13;;;;;;;8.52;2.22;;;3.90;99.90;;;;;;4866039;29;20088;-89
2022/04/09 02:32:49;;;;;;;9.15;2.20;;;3.90;99.90;;;;;;4866791;29;20738;-90
2022/04/09 02:35:17;;;;;;;9.40;2.95;;;3.90;99.90;;;;;;4857504;29;20157;-90
2022/04/09 02:37:42;;;;;;;7.60;2.47;;;3.80;99.90;;;;;;4863623;29;20049;-90
2022/04/09 02:40:09;;;;;;;8.48;1.77;;;3.80;99.90;;;;;;4886758;29;20579;-90
2022/04/09 02:42:39;;;;;;;9.45;1.90;;;3.80;99.90;;;;;;4871030;29;20061;-91
2022/04/09 02:45:06;;;;;;;7.97;1.67;;;3.70;99.90;;;;;;4898075;29;20401;-89
2022/04/09 02:47:32;;;;;;;10.20;1.95;;;3.70;99.90;;;;;;4880425;29;20048;-87
2022/04/09 02:50:03;;;;;;;6.68;1.70;;;3.70;99.90;;;;;;4877637;29;20547;-87
2022/04/09 02:52:40;;;;;;;7.35;1.38;;;3.60;99.90;;;;;;4878489;29;20051;-88
2022/04/09 02:55:06;;;;;;;6.72;1.70;;;3.70;99.90;;;;;;4881639;29;20675;-87
2022/04/09 02:57:34;;;;;;;8.02;1.85;;;3.60;99.90;;;;;;4882912;29;20036;-89
2022/04/09 02:59:59;;;;;;;6.22;1.88;;;3.50;99.90;;;;;;4881201;29;20121;-89
2022/04/09 03:02:25;;;;;;;6.80;1.50;;;3.50;99.90;;;;;;4890138;29;20051;-88
2022/04/09 03:04:55;;;;;;;4.78;1.23;;;3.50;99.90;;;;;;4896564;29;20174;-87
2022/04/09 03:07:21;;;;;;;6.93;1.63;;;3.40;99.90;;;;;;4896861;29;20044;-89
2022/04/09 03:09:47;;;;;;;4.28;1.35;;;3.40;99.90;;;;;;4898769;29;20036;-88
2022/04/09 03:12:13;;;;;;;7.20;1.40;;;3.40;99.90;;;;;;4905322;29;20217;-87
2022/04/09 03:14:38;;;;;;;8.48;1.48;;;3.40;99.90;;;;;;4876605;29;20510;-88
2022/04/09 03:17:04;;;;;;;4.75;1.35;;;3.40;99.90;;;;;;4885849;29;20096;-88
2022/04/09 03:19:29;;;;;;;5.80;1.70;;;3.40;99.90;;;;;;4906106;29;20136;-88
2022/04/09 03:21:55;;;;;;;9.98;1.67;;;3.40;99.90;;;;;;4881593;29;20058;-88
2022/04/09 03:24:21;;;;;;;7.90;1.30;;;3.40;99.90;;;;;;4903048;29;20449;-89
2022/04/09 03:26:46;;;;;;;7.47;1.55;;;3.40;99.90;;;;;;4887190;29;20060;-89
2022/04/09 03:29:12;;;;;;;9.43;1.65;;;3.40;99.90;;;;;;4904325;29;20471;-90
2022/04/09 03:31:37;;;;;;;5.97;1.45;;;3.40;99.90;;;;;;4918471;29;20036;-88
2022/04/09 03:34:06;;;;;;;6.40;1.20;;;3.50;99.90;;;;;;4903942;29;20549;-88
2022/04/09 03:36:32;;;;;;;9.13;2.15;;;3.50;99.90;;;;;;4902040;29;20044;-90
2022/04/09 03:38:57;;;;;;;6.60;1.60;;;3.50;99.90;;;;;;4891066;29;20048;-87
2022/04/09 03:41:23;;;;;;;8.63;1.70;;;3.50;99.90;;;;;;4891371;29;20467;-87
2022/04/09 03:43:50;;;;;;;4.88;1.30;;;3.60;99.90;;;;;;4883485;29;20081;-88
2022/04/09 03:46:16;;;;;;;4.80;1.25;;;3.60;99.90;;;;;;4858137;29;20589;-86
2022/04/09 03:48:43;;;;;;;10.20;1.60;;;3.60;99.90;;;;;;4865257;29;20128;-90
2022/04/09 03:51:09;;;;;;;7.78;1.45;;;3.60;99.90;;;;;;4883931;29;20057;-91
2022/04/09 03:53:35;;;;;;;6.78;1.52;;;3.70;99.90;;;;;;4874353;29;20043;-87
2022/04/09 03:56:00;;;;;;;9.23;1.35;;;3.70;99.90;;;;;;4857769;29;20114;-89
2022/04/09 03:58:26;;;;;;;4.68;1.42;;;3.70;99.90;;;;;;4888963;29;20114;-88
2022/04/09 04:00:52;;;;;;;5.05;1.17;;;3.70;99.90;;;;;;4871985;29;20062;-91
2022/04/09 04:03:19;;;;;;;7.15;1.40;;;3.80;99.90;;;;;;4880313;29;20037;-89
2022/04/09 04:05:46;;;;;;;7.25;1.63;;;3.80;99.90;;;;;;4871354;29;20093;-91
2022/04/09 04:08:11;;;;;;;7.93;1.50;;;3.80;99.90;;;;;;4874087;29;20055;-87
2022/04/09 04:10:37;;;;;;;8.50;1.40;;;3.80;99.90;;;;;;4862354;29;20040;-87
2022/04/09 04:13:06;;;;;;;5.90;1.10;;;3.80;99.90;;;;;;4869848;29;20140;-87
2022/04/09 04:15:33;;;;;;;7.03;1.38;;;3.80;99.90;;;;;;4882283;29;20048;-88
2022/04/09 04:17:59;;;;;;;4.60;1.00;;;3.80;99.90;;;;;;4883966;29;20460;-89
2022/04/09 04:20:24;;;;;;;8.73;2.05;;;3.80;99.90;;;;;;4891975;29;20057;-87
2022/04/09 04:22:54;;;;;;;5.28;1.50;;;3.80;99.90;;;;;;4875571;29;20505;-86
2022/04/09 04:25:20;;;;;;;6.38;1.30;;;3.80;99.90;;;;;;4867401;29;20366;-86
2022/04/09 04:27:47;;;;;;;5.90;1.23;;;3.70;99.90;;;;;;4875093;29;20045;-89
2022/04/09 04:30:13;;;;;;;4.70;1.30;;;3.70;99.90;;;;;;4891412;29;20053;-87
2022/04/09 04:32:40;;;;;;;6.57;1.20;;;3.60;99.90;;;;;;4872048;29;20414;-88
2022/04/09 04:35:06;;;;;;;5.13;1.10;;;3.60;99.90;;;;;;4897089;29;20066;-86
2022/04/09 04:37:42;;;;;;;3.45;1.05;;;3.60;99.90;;;;;;4889437;29;20045;-88
2022/04/09 04:40:08;;;;;;;4.55;1.20;;;3.60;99.90;;;;;;4895368;29;20063;-88
2022/04/09 04:42:34;;;;;;;6.25;1.23;;;3.60;99.90;;;;;;4894219;29;20048;-88
2022/04/09 04:45:00;;;;;;;5.80;1.33;;;3.60;99.90;;;;;;4910611;29;20508;-86
2022/04/09 04:47:26;;;;;;;6.18;1.10;;;3.60;99.90;;;;;;4898396;29;20637;-89
2022/04/09 04:49:51;;;;;;;4.68;1.08;;;3.60;99.90;;;;;;4916526;29;20048;-88
2022/04/09 04:52:17;;;;;;;9.05;1.75;;;3.60;99.90;;;;;;4888638;29;20111;-89
2022/04/09 04:54:42;;;;;;;8.50;1.30;;;3.60;99.90;;;;;;4903563;29;20189;-89
2022/04/09 04:57:08;;;;;;;7.03;1.58;;;3.70;99.90;;;;;;4888346;29;20151;-91
2022/04/09 04:59:33;;;;;;;6.30;1.33;;;3.70;99.90;;;;;;4894494;29;20055;-87
2022/04/09 05:01:59;;;;;;;6.25;1.15;;;3.80;99.90;;;;;;4893460;29;20048;-88
2022/04/09 05:04:25;;;;;;;6.40;1.63;;;3.80;99.90;;;;;;4908253;29;20035;-89
2022/04/09 05:06:51;;;;;;;5.82;1.10;;;3.90;99.90;;;;;;4908962;29;20087;-87
2022/04/09 05:09:17;;;;;;;5.57;1.33;;;3.90;99.90;;;;;;4889683;29;20054;-89
2022/04/09 05:11:43;;;;;;;6.43;1.52;;;3.90;99.90;;;;;;4892822;29;20111;-88
2022/04/09 05:14:08;;;;;;;6.63;1.10;;;3.90;99.90;;;;;;4894074;29;20036;-89
2022/04/09 05:16:34;;;;;;;7.40;1.35;;;3.90;99.90;;;;;;4892054;29;20433;-88
2022/04/09 05:19:00;;;;;;;5.53;1.23;;;3.90;99.90;;;;;;4881094;29;20040;-89
2022/04/09 05:21:26;;;;;;;9.73;1.67;;;3.90;99.90;;;;;;4891915;29;20049;-87
2022/04/09 05:23:51;;;;;;;9.50;1.50;;;4.00;99.90;;;;;;4904892;29;20079;-87
2022/04/09 05:26:17;;;;;;;7.05;1.23;;;4.00;99.90;;;;;;4905612;29;20056;-89
2022/04/09 05:28:42;;;;;;;7.32;1.35;;;4.00;99.90;;;;;;4901220;29;20053;-88
2022/04/09 05:31:11;;;;;;;10.88;2.30;;;4.00;99.90;;;;;;4867724;29;20289;-90
2022/04/09 05:33:37;;;;;;;8.55;1.65;;;4.00;99.90;;;;;;4897735;29;20052;-88
2022/04/09 05:36:03;;;;;;;4.50;1.42;;;4.00;99.90;;;;;;4877432;29;20414;-89
2022/04/09 05:38:30;;;;;;;5.43;1.98;;;4.00;99.90;;;;;;4922210;29;20048;-88
2022/04/09 05:40:55;;;;;;;5.13;1.38;;;3.90;99.90;;;;;;4896759;29;20069;-87
2022/04/09 05:43:21;;;;;;;5.88;1.55;;;3.90;99.90;;;;;;4859698;29;20478;-87
2022/04/09 05:45:46;;;;;;;6.00;1.35;;;4.00;99.90;;;;;;4885368;29;20040;-88
2022/04/09 05:48:12;;;;;;;7.20;1.30;;;4.00;99.90;;;;;;4886405;29;20063;-88
2022/04/09 05:50:37;;;;;;;9.05;2.20;;;4.10;99.90;;;;;;4876701;29;20053;-89
2022/04/09 05:53:03;;;;;;;8.38;1.75;;;4.20;99.90;;;;;;4866797;29;20060;-89
2022/04/09 05:55:29;;;;;;;7.72;1.63;;;4.30;99.90;;;;;;4876585;29;20171;-89
2022/04/09 05:57:54;;;;;;;7.53;1.58;;;4.50;99.90;;;;;;4882167;29;20120;-89
2022/04/09 06:00:20;;;;;;;7.60;1.50;;;4.70;99.90;;;;;;4874161;29;20478;-86
2022/04/09 06:02:45;;;;;;;6.55;1.88;;;4.90;99.90;;;;;;4878603;29;20037;-88
2022/04/09 06:05:11;;;;;;;8.75;1.55;;;5.00;99.90;;;;;;4855966;29;20049;-88
2022/04/09 06:07:37;;;;;;;5.68;1.10;;;5.10;99.90;;;;;;4897689;29;20049;-88
2022/04/09 06:10:05;;;;;;;5.53;1.63;;;5.10;99.90;;;;;;4890789;29;20485;-88
2022/04/09 06:12:32;;;;;;;6.30;1.48;;;5.10;99.90;;;;;;4864545;29;20439;-91
2022/04/09 06:14:57;;;;;;;7.57;1.58;;;5.00;99.90;;;;;;4884979;29;20411;-91
2022/04/09 06:17:26;;;;;;;3.88;1.13;;;5.00;99.90;;;;;;4872170;29;20053;-90
2022/04/09 06:19:52;;;;;;;9.55;1.90;;;5.00;99.90;;;;;;4873608;29;20053;-93
2022/04/09 06:22:18;;;;;;;10.13;1.80;;;5.00;99.90;;;;;;4880339;29;20037;-91
2022/04/09 06:24:44;;;;;;;6.90;1.63;;;5.00;99.90;;;;;;4888184;29;20072;-89
2022/04/09 06:27:13;;;;;;;6.78;1.63;;;5.00;99.90;;;;;;4882497;29;20065;-88
2022/04/09 06:29:38;;;;;;;9.60;1.60;;;5.00;99.90;;;;;;4883291;29;20052;-88
2022/04/09 06:32:05;;;;;;;7.05;1.48;;;5.00;99.90;;;;;;4878473;29;20049;-91
2022/04/09 06:34:31;;;;;;;6.65;1.42;;;5.10;99.90;;;;;;4887306;29;20148;-90
2022/04/09 06:36:56;;;;;;;7.55;2.08;;;5.10;99.90;;;;;;4886109;29;20136;-94
2022/04/09 06:39:23;;;;;;;9.88;2.17;;;5.20;99.90;;;;;;4881594;29;20049;-91
2022/04/09 06:41:50;;;;;;;9.77;1.75;;;5.30;99.90;;;;;;4881928;29;20055;-90
2022/04/09 06:44:16;;;;;;;7.38;2.00;;;5.30;99.90;;;;;;4884138;29;20044;-90
2022/04/09 06:46:43;;;;;;;11.57;2.28;;;5.50;99.90;;;;;;4909269;29;20369;-91
2022/04/09 06:49:12;;;;;;;14.27;3.00;;;5.60;99.90;;;;;;4901376;29;20071;-93
2022/04/09 06:51:39;;;;;;;6.78;1.60;;;5.70;99.90;;;;;;4881183;29;20044;-92
2022/04/09 06:54:05;;;;;;;7.93;1.85;;;5.80;99.90;;;;;;4878655;29;20483;-91
2022/04/09 06:56:30;;;;;;;6.75;1.60;;;6.00;99.90;;;;;;4904652;29;20043;-94
2022/04/09 06:58:56;;;;;;;11.48;3.17;;;6.10;99.90;;;;;;4877858;29;20537;-92
2022/04/09 07:01:21;;;;;;;9.93;1.70;;;6.30;99.90;;;;;;4901703;29;20040;-94
2022/04/09 07:03:47;;;;;;;10.43;2.00;;;6.40;99.90;;;;;;4891817;29;20055;-89
2022/04/09 07:06:15;;;;;;;11.52;2.47;;;6.60;99.90;;;;;;4895410;29;20055;-90
2022/04/09 07:08:41;;;;;;;10.02;2.05;;;6.70;99.90;;;;;;4903033;29;20048;-91
2022/04/09 07:11:08;;;;;;;8.13;1.80;;;6.70;99.90;;;;;;4879954;29;20127;-95
2022/04/09 07:13:33;;;;;;;8.77;1.80;;;6.70;99.90;;;;;;4899850;29;20056;-95
2022/04/09 07:15:59;;;;;;;8.07;1.60;;;6.60;99.90;;;;;;4898224;29;20132;-91
2022/04/09 07:18:24;;;;;;;5.88;1.45;;;6.60;99.90;;;;;;4897900;29;20482;-91
2022/04/09 07:20:50;;;;;;;11.50;1.67;;;6.60;99.90;;;;;;4877351;29;20444;-88
2022/04/09 07:23:15;;;;;;;8.23;2.15;;;6.60;99.90;;;;;;4890829;29;20835;-89
2022/04/09 07:25:42;;;;;;;8.23;1.98;;;6.70;99.90;;;;;;4892341;29;20453;-90
2022/04/09 07:28:09;;;;;;;7.93;1.65;;;6.60;99.90;;;;;;4907198;29;20135;-89
2022/04/09 07:30:34;;;;;;;6.10;1.50;;;6.70;99.90;;;;;;4891541;29;20051;-87
2022/04/09 07:33:00;;;;;;;6.20;1.40;;;6.70;99.90;;;;;;4907587;29;20074;-88
2022/04/09 07:35:26;;;;;;;9.60;1.80;;;6.80;99.90;;;;;;4894454;29;20355;-89
2022/04/09 07:37:54;;;;;;;10.43;1.83;;;6.80;99.90;;;;;;4892363;29;20152;-91
2022/04/09 07:40:20;;;;;;;9.50;2.15;;;6.80;99.90;;;;;;4893151;29;20136;-87
2022/04/09 07:42:47;;;;;;;10.32;2.15;;;6.80;99.90;;;;;;4893825;29;20139;-90
2022/04/09 07:45:14;;;;;;;13.88;2.00;;;6.90;99.90;;;;;;4892827;29;20529;-87
2022/04/09 07:47:41;;;;;;;9.18;2.10;;;7.00;99.90;;;;;;4892363;29;20428;-88
2022/04/09 07:50:10;;;;;;;7.97;1.75;;;7.10;99.90;;;;;;4892462;29;20418;-87
2022/04/09 07:52:37;;;;;;;8.45;2.03;;;7.10;99.90;;;;;;4910307;29;20044;-91
2022/04/09 07:55:03;;;;;;;11.55;2.13;;;7.10;99.90;;;;;;4903399;29;20567;-89
2022/04/09 07:57:29;;;;;;;9.70;1.70;;;7.20;99.90;;;;;;4893127;29;20056;-88
2022/04/09 07:59:58;;;;;;;9.45;2.30;;;7.30;99.90;;;;;;4888901;29;20143;-89
2022/04/09 08:02:24;;;;;;;9.15;2.13;;;7.40;99.90;;;;;;4907740;29;20080;-88
2022/04/09 08:04:50;;;;;;;8.95;1.90;;;7.50;99.90;;;;;;4902666;29;20064;-92
2022/04/09 08:07:15;;;;;;;9.13;2.10;;;7.70;99.90;;;;;;4895776;29;20048;-87
2022/04/09 08:09:43;;;;;;;9.43;1.55;;;7.70;99.90;;;;;;4898691;29;20064;-90
2022/04/09 08:12:11;;;;;;;10.07;1.77;;;7.60;99.90;;;;;;4920530;29;20079;-89
2022/04/09 08:14:37;;;;;;;6.22;1.60;;;7.70;99.90;;;;;;4901153;29;20076;-88
2022/04/09 08:17:03;;;;;;;10.98;2.00;;;7.70;99.90;;;;;;4896896;29;20078;-88
2022/04/09 08:19:29;;;;;;;9.63;2.00;;;7.80;99.90;;;;;;4894047;29;20087;-92
2022/04/09 08:21:57;;;;;;;11.23;1.65;;;7.70;99.90;;;;;;4886414;29;20060;-89
2022/04/09 08:24:23;;;;;;;9.10;1.70;;;7.80;99.90;;;;;;4883772;29;20052;-92
2022/04/09 08:26:48;;;;;;;7.30;1.83;;;7.80;99.90;;;;;;4878169;29;20365;-87
2022/04/09 08:29:19;;;;;;;9.43;1.85;;;8.00;99.90;;;;;;4905208;29;20902;-92
2022/04/09 08:31:47;;;;;;;7.72;1.90;;;8.00;99.90;;;;;;4902108;29;20056;-89
2022/04/09 08:34:17;;;;;;;6.88;1.48;;;8.00;99.90;;;;;;4893393;29;20070;-88
2022/04/09 08:36:42;;;;;;;9.13;1.40;;;8.10;99.90;;;;;;4905600;29;20566;-92
2022/04/09 08:39:08;;;;;;;9.40;1.50;;;8.20;99.90;;;;;;4884237;29;20052;-88
2022/04/09 08:41:44;;;;;;;9.00;1.90;;;8.40;99.90;;;;;;4869622;29;20564;-92
2022/04/09 08:44:11;;;;;;;6.13;1.60;;;8.60;99.90;;;;;;4869256;29;20400;-91
2022/04/09 08:46:39;;;;;;;9.18;1.70;;;8.60;99.90;;;;;;4884630;29;20056;-89
2022/04/09 08:49:06;;;;;;;9.90;1.60;;;8.50;99.90;;;;;;4874173;29;20398;-88
2022/04/09 08:51:32;;;;;;;7.28;1.67;;;8.50;99.90;;;;;;4875103;29;20045;-89
2022/04/09 08:54:02;;;;;;;6.75;1.70;;;8.50;99.90;;;;;;4883064;29;20088;-91
2022/04/09 08:56:29;;;;;;;10.25;1.90;;;8.50;99.90;;;;;;4874700;29;20040;-88
2022/04/09 08:58:57;;;;;;;7.38;1.42;;;8.60;99.90;;;;;;4887380;29;20074;-91
2022/04/09 09:01:23;;;;;;;7.68;1.70;;;8.60;99.90;;;;;;4891529;29;20059;-90
2022/04/09 09:03:49;;;;;;;9.40;1.60;;;8.60;99.90;;;;;;4892302;29;20419;-88
2022/04/09 09:06:28;;;;;;;8.90;1.52;;;8.60;99.90;;;;;;4880743;29;20053;-90
2022/04/09 09:08:58;;;;;;;7.72;1.40;;;8.60;99.90;;;;;;4888414;29;20049;-88
2022/04/09 09:11:24;;;;;;;8.27;1.80;;;8.80;99.90;;;;;;4855549;29;20045;-89
2022/04/09 09:13:52;;;;;;;7.40;2.10;;;8.80;99.90;;;;;;4871291;29;20096;-89
2022/04/09 09:16:31;;;;;;;8.10;1.67;;;8.90;99.90;;;;;;4860732;29;20053;-91
2022/04/09 09:19:05;;;;;;;6.30;1.42;;;8.90;99.90;;;;;;4865037;29;20048;-93
2022/04/09 09:21:31;;;;;;;6.63;1.63;;;8.90;99.90;;;;;;4883260;29;20112;-91
2022/04/09 09:24:18;;;;;;;6.78;1.40;;;9.00;99.90;;;;;;4884788;29;20124;-90
2022/04/09 09:26:44;;;;;;;8.05;2.10;;;9.00;99.90;;;;;;4890343;29;20051;-92
2022/04/09 09:29:22;;;;;;;6.80;2.20;;;9.10;99.90;;;;;;4886774;29;21317;-89
2022/04/09 09:31:50;;;;;;;7.63;1.48;;;9.20;99.90;;;;;;4886347;29;20049;-88
2022/04/09 09:34:20;;;;;;;9.88;1.70;;;9.20;99.90;;;;;;4882191;29;20049;-89
2022/04/09 09:36:47;;;;;;;8.90;1.95;;;9.30;99.90;;;;;;4838773;29;20048;-87
2022/04/09 09:39:21;;;;;;;6.05;1.50;;;9.20;99.90;;;;;;4881636;29;20060;-88
2022/04/09 09:41:48;;;;;;;9.82;1.95;;;9.10;99.90;;;;;;4887226;29;20072;-88
2022/04/09 09:44:14;;;;;;;6.72;1.55;;;9.10;99.90;;;;;;4874475;29;20064;-91
2022/04/09 09:46:39;;;;;;;8.15;1.75;;;9.20;99.90;;;;;;4879335;29;20053;-90
2022/04/09 09:49:05;;;;;;;7.25;1.63;;;9.20;99.90;;;;;;4880626;29;20041;-91
2022/04/09 09:51:31;;;;;;;7.05;1.73;;;9.40;99.90;;;;;;4875222;29;20061;-91
2022/04/09 09:54:05;;;;;;;7.47;1.45;;;9.50;99.90;;;;;;4900536;29;20044;-91
2022/04/09 09:56:33;;;;;;;7.03;1.63;;;9.50;99.90;;;;;;4870981;29;20048;-86
2022/04/09 09:59:00;;;;;;;9.85;1.70;;;9.50;99.90;;;;;;4866288;29;20068;-91
2022/04/09 10:01:26;;;;;;;8.77;1.65;;;9.50;99.90;;;;;;4890790;29;20070;-87
2022/04/09 10:03:53;;;;;;;8.02;1.92;;;9.40;99.90;;;;;;4878831;29;20052;-88
2022/04/09 10:06:23;;;;;;;7.22;1.60;;;9.50;99.90;;;;;;4881418;29;20048;-91
2022/04/09 10:08:48;;;;;;;8.75;1.65;;;9.70;99.90;;;;;;4886900;29;20132;-89
2022/04/09 10:11:17;;;;;;;6.85;1.70;;;9.80;99.90;;;;;;4878697;29;20222;-90
2022/04/09 10:13:47;;;;;;;7.80;1.80;;;9.90;99.90;;;;;;4868446;29;20092;-93
2022/04/09 10:16:21;;;;;;;8.13;1.73;;;9.80;99.90;;;;;;4866833;29;20083;-89
2022/04/09 10:18:49;;;;;;;7.60;2.13;;;9.30;99.90;;;;;;4868279;29;20171;-88
2022/04/09 10:21:16;;;;;;;7.65;1.75;;;8.80;99.90;;;;;;4887046;29;20407;-90
2022/04/09 10:23:42;;;;;;;8.13;1.70;;;8.50;99.90;;;;;;4888411;29;20049;-89
2022/04/09 10:26:09;;;;;;;8.07;1.50;;;8.20;99.90;;;;;;4890513;29;20080;-89
2022/04/09 10:28:38;;;;;;;10.40;1.70;;;8.10;99.90;;;;;;4868064;29;20063;-92
2022/04/09 10:31:22;;;;;;;8.32;1.40;;;8.10;99.90;;;;;;4893669;29;20049;-90
2022/04/09 10:33:55;;;;;;;7.40;2.05;;;8.30;99.90;;;;;;4888252;29;20135;-87
2022/04/09 10:36:45;;;;;;;8.02;1.65;;;8.60;99.90;;;;;;4888585;29;20481;-91
2022/04/09 10:39:29;;;;;;;6.47;1.33;;;9.00;99.90;;;;;;4878494;29;20055;-92
2022/04/09 10:41:55;;;;;;;8.05;2.22;;;9.10;99.90;;;;;;4881148;29;20091;-91
2022/04/09 10:44:42;;;;;;;7.43;1.85;;;9.20;99.90;;;;;;4896192;29;20041;-88
2022/04/09 10:47:08;;;;;;;10.20;1.90;;;9.30;99.90;;;;;;4890857;29;20144;-87
2022/04/09 10:49:33;;;;;;;6.88;1.52;;;9.50;99.90;;;;;;4893658;29;20131;-89
2022/04/09 10:52:11;;;;;;;8.98;2.25;;;9.60;99.90;;;;;;4892078;29;20037;-88
2022/04/09 10:54:37;;;;;;;8.63;1.60;;;9.60;99.90;;;;;;4902531;29;20405;-89
2022/04/09 10:57:08;;;;;;;6.57;1.73;;;9.50;99.90;;;;;;4912688;29;20040;-84
2022/04/09 10:59:34;;;;;;;5.93;0.98;;;9.10;99.90;;;;;;4897847;29;20506;-92
2022/04/09 11:02:02;;;;;;;5.30;1.15;;;8.70;99.90;;;;;;4890797;29;20044;-87
2022/04/09 11:04:37;;;;;;;4.82;1.10;;;8.10;99.90;;;;;;4891654;29;20059;-87
2022/04/09 11:07:03;;;;;;;6.53;1.67;;;7.70;99.90;;;;;;4895791;29;20134;-86
2022/04/09 11:09:51;;;;;;;9.23;2.20;;;7.30;99.90;;;;;;4901581;29;20048;-85
2022/04/09 11:12:40;;;;;;;10.65;3.97;;;7.10;99.90;;;;;;4900437;29;20056;-87
2022/04/09 11:15:11;;;;;;;7.80;1.60;;;6.90;99.90;;;;;;4858851;29;20064;-88
2022/04/09 11:17:39;;;;;;;8.63;1.90;;;6.80;99.90;;;;;;4862298;29;20045;-88
2022/04/09 11:20:10;;;;;;;9.45;2.47;;;6.70;99.90;;;;;;4873976;29;20074;-87
2022/04/09 11:22:39;;;;;;;5.30;1.17;;;6.80;99.90;;;;;;4896776;29;20056;-86
2022/04/09 11:25:24;;;;;;;5.57;1.20;;;6.60;99.90;;;;;;4897576;29;20048;-86
2022/04/09 11:27:51;;;;;;;5.03;0.98;;;6.80;99.90;;;;;;4891669;29;20048;-88
2022/04/09 11:30:18;;;;;;;6.35;1.63;;;7.00;99.90;;;;;;4899202;29;20053;-89
2022/04/09 11:32:47;;;;;;;6.68;1.52;;;7.20;99.90;;;;;;4899730;29;20048;-86
2022/04/09 11:35:12;;;;;;;6.68;1.10;;;7.50;99.90;;;;;;4903119;29;20048;-87
2022/04/09 11:37:43;;;;;;;7.35;1.00;;;7.80;99.90;;;;;;4883191;29;20258;-89
2022/04/09 11:40:11;;;;;;;8.73;2.00;;;8.00;99.90;;;;;;4902532;29;20076;-85
2022/04/09 11:42:57;;;;;;;11.20;2.70;;;8.20;99.90;;;;;;4882222;29;20415;-84
2022/04/09 11:45:24;;;;;;;11.30;2.13;;;8.60;99.90;;;;;;4884629;29;20554;-86
2022/04/09 11:47:53;;;;;;;9.93;1.75;;;8.90;99.90;;;;;;4892032;29;20617;-85
2022/04/09 11:50:19;;;;;;;6.78;1.45;;;9.00;99.90;;;;;;4884332;29;20388;-89
2022/04/09 11:52:45;;;;;;;8.57;1.70;;;8.90;99.90;;;;;;4875453;29;20405;-85
2022/04/09 11:55:14;;;;;;;9.25;1.90;;;8.90;99.90;;;;;;4868154;29;20431;-89
2022/04/09 11:57:51;;;;;;;10.98;1.98;;;8.80;99.90;;;;;;4864479;29;20051;-88
2022/04/09 12:00:17;;;;;;;7.47;1.55;;;8.80;99.90;;;;;;4858178;29;20351;-87
2022/04/09 12:02:43;;;;;;;10.13;1.90;;;8.70;99.90;;;;;;4875576;29;20394;-86
2022/04/09 12:05:10;;;;;;;11.63;2.40;;;8.80;99.90;;;;;;4884183;29;20052;-88
2022/04/09 12:07:47;;;;;;;8.07;1.80;;;9.00;99.90;;;;;;4892720;29;20056;-89
2022/04/09 12:10:23;;;;;;;9.45;2.03;;;9.00;99.90;;;;;;4862687;29;20053;-86
2022/04/09 12:13:02;;;;;;;7.97;1.63;;;9.20;99.90;;;;;;4892480;29;20286;-86
2022/04/09 12:15:29;;;;;;;7.97;1.60;;;9.50;99.90;;;;;;4862822;29;20376;-86
2022/04/09 12:17:54;;;;;;;6.38;1.42;;;9.60;99.90;;;;;;4880842;29;20048;-87
2022/04/09 12:20:37;;;;;;;5.05;1.10;;;9.60;99.90;;;;;;4875381;29;20056;-86
2022/04/09 12:23:04;;;;;;;9.65;1.98;;;9.60;99.90;;;;;;4873985;29;20053;-89
2022/04/09 12:25:37;;;;;;;6.20;1.50;;;9.50;99.90;;;;;;4875388;29;20061;-88
2022/04/09 12:28:04;;;;;;;7.90;1.50;;;9.50;99.90;;;;;;4891125;29;20474;-87
2022/04/09 12:30:45;;;;;;;5.30;1.48;;;9.70;99.90;;;;;;4892185;29;20080;-89
2022/04/09 12:33:12;;;;;;;6.53;1.63;;;9.80;99.90;;;;;;4882915;29;20056;-86
2022/04/09 12:35:39;;;;;;;6.85;1.40;;;10.00;99.90;;;;;;4889853;29;20060;-87
2022/04/09 12:38:05;;;;;;;6.82;1.52;;;9.70;99.90;;;;;;4889022;29;20383;-87
2022/04/09 12:40:32;;;;;;;6.47;1.20;;;9.40;99.90;;;;;;4857988;29;20105;-83
2022/04/09 12:43:01;;;;;;;6.38;1.33;;;9.30;99.90;;;;;;4882146;29;20079;-88
2022/04/09 12:45:28;;;;;;;6.95;1.50;;;9.30;99.90;;;;;;4886613;29;20131;-84
2022/04/09 12:48:05;;;;;;;7.50;1.10;;;9.00;99.90;;;;;;4880371;29;20127;-87
2022/04/09 12:50:35;;;;;;;4.82;1.27;;;8.90;99.90;;;;;;4875399;29;20049;-86
2022/04/09 12:53:05;;;;;;;6.40;1.38;;;8.70;99.90;;;;;;4874853;29;20098;-90
2022/04/09 12:55:32;;;;;;;5.85;1.25;;;8.60;99.90;;;;;;4885221;29;20053;-88
2022/04/09 12:57:59;;;;;;;5.10;1.10;;;8.40;99.90;;;;;;4888778;29;20076;-86